Terminal Aerodrome Forecast
Issued by NWS

Home | Current Version | Previous Version | Text Only | Print | Product List | Glossary On
Versions: 1 2 3 4 5 6 7 8 9 10 11 12 13 14 15 16 17 18 19 20 21 22 23 24 25 26 27 28 29 30 31 32 33 34 35 36 37 38 39 40 41 42 43 44 45 46 47 48 49 50
851
FTUS42 KMFL 191549 AAC
TAFFXE
TAF AMD
KFXE 191549Z 1916/2012 03008KT P6SM SHRA SCT008 BKN015
      TEMPO 1916/1918 2SM +SHRA BR SCT006 OVC008
     FM191800 03015KT P6SM -SHRA SCT010 BKN020 OVC035
     FM200100 05010KT P6SM VCSH SCT015 BKN025 OVC035
     FM200900 05006KT P6SM SCT015 BKN025 OVC035=

USA.gov is the U.S. government's official web portal to all federal, state and local government web resources and services.